White Mountain, AK (99784)

8:37 PM AKDT on March 27, 2015 (GMT -0800)
Golovin | | Change Station
CLOSE
Current Station
Airport
Location: Golovin,
Elevation: 26 ft
Nearby Weather Stations

Elev 26 ft 64.54 °N, 163.04 °W | Updated 1 hour ago

Clear
Clear
18 °F
Feels Like 8 °F
N
7
Wind Variable Wind from WNW

Today
High -- | Low -- °F
--% Chance of Precip.
Yesterday
High -- | Low -- °F
Precip. -- in
8:27 AM 9:30 PM
First Quarter, 59% visible
Pressure 29.55 in
Visibility 10.0 miles
Clouds Clear
Windchill 8 °F
Dew Point 9 °F
Humidity 68%
Rainfall 0.00 in
Snow Depth Not available.
UV 1 out of 12
Pollen Not available.
Air Quality Not available.
Flu Activity Not available.
SPECI PAGL 280305Z 29006KT 10SM CLR M08/M13 A2955 RMK VIA PHONE

More Conditions Fewer Conditions

Pressure 29.55 in
Visibility 10.0 miles
Clouds Clear
Windchill 8 °F
Dew Point 9 °F
Humidity 68%
Rainfall 0.00 in
Snow Depth Not available.
UV 1 out of 12
Pollen Not available.
Air Quality Not available.
Flu Activity Not available.
SPECI PAGL 280305Z 29006KT 10SM CLR M08/M13 A2955 RMK VIA PHONE

More Conditions Fewer Conditions

10-Day Weather Forecast

Almanac

Astronomy

Mar. 27, 2015 Rise Set
Actual Time
Civil Twilight
Nautical Twilight
Astronomical Twilight
Moon
Length of Visible Light
Length of Day
Tomorrow will be .
, % of the Moon is Illuminated

Today's Extremes

State Highs State Lows

Community

WunderPhotos

Upload Photos

1,808,928 photos uploaded!

WunderBlogs® & News

Nearby

Air Quality

  Air Quality AQ Index Pollutant
Not available.

Snow Depth

Station Depth Elevation

Earthquake Activity

City Distance Mag. Time & Date
Minimum magnitude displayed is 2.5.

Coastal Water Temperatures

Place Temperature

Stations

Nearby Weather Stations

Station Location Temp. Windchill Dew Point Humidity Wind Precip. Elev Updated Type